Iselin, New Jersey
Current Conditions -  °F | °C
As of 4:55 AM on Friday 31 Oct 2014 (Local Time) from KLDJ Reporting Station
Broken Clouds Broken Clouds  
Wind Chill: 45°   Ceiling: 3700
Heat Index: 45°   Visibility: 10mi
Dew Point: 38°   Wind: 3mph
Humidity: 78%   Direction: 330°NNW
Pressure: 30.03"   Gusts: NA
Location:  40.57°N, 74.32°W
Report Text: KLDJ 310855Z AUTO 33003KT 10SM BKN037 BKN047 07/04 A3003 RMK AO2 T00720036
Loading
Personal Weather Stations






























Interactive Weather Map
Tropical Storm Tracking
New forecast layout! Learn more

10-Day Weather Forecast

Advertisements
Track Severe Weather on mobile